Terminal Aerodrome Forecast
Issued by NWS

Home | Current Version | Previous Version | Graphics & Text | Print | Product List | Glossary On
Versions: 1 2 3 4 5 6 7 8 9 10 11 12 13 14 15 16 17 18 19 20 21 22 23
000
FTUS43 KGRB 210126 AAA
TAFCWA
TAF AMD
KCWA 210126Z 2101/2124 32004KT 3SM BR SCT009 BKN035
      TEMPO 2102/2106 1 1/2SM BR BKN009
     FM210600 03004KT 2SM BR SCT005
      TEMPO 2109/2113 1SM BR BKN003
     FM211400 11007KT P6SM BKN012
     FM211900 12007KT P6SM SCT030=

USA.gov is the U.S. government's official web portal to all federal, state and local government web resources and services.